sensor_id;sensor_type;location;lat;lon;timestamp;P1;durP1;ratioP1;P2;durP2;ratioP2
2474;SDS011;1248;48.694;10.160;2023-07-16T00:01:54;6.70;;;5.90;;
2474;SDS011;1248;48.694;10.160;2023-07-16T00:04:21;6.93;;;6.23;;
2474;SDS011;1248;48.694;10.160;2023-07-16T00:06:48;8.57;;;5.87;;
2474;SDS011;1248;48.694;10.160;2023-07-16T00:09:15;7.27;;;5.43;;
2474;SDS011;1248;48.694;10.160;2023-07-16T00:11:44;7.07;;;5.87;;
2474;SDS011;1248;48.694;10.160;2023-07-16T00:14:11;8.47;;;6.87;;
2474;SDS011;1248;48.694;10.160;2023-07-16T00:16:38;8.43;;;5.90;;
2474;SDS011;1248;48.694;10.160;2023-07-16T00:19:05;7.60;;;6.13;;
2474;SDS011;1248;48.694;10.160;2023-07-16T00:21:32;8.17;;;6.17;;
2474;SDS011;1248;48.694;10.160;2023-07-16T00:23:59;8.47;;;6.40;;
2474;SDS011;1248;48.694;10.160;2023-07-16T00:26:26;7.50;;;6.33;;
2474;SDS011;1248;48.694;10.160;2023-07-16T00:28:55;14.10;;;7.10;;
2474;SDS011;1248;48.694;10.160;2023-07-16T00:31:22;7.70;;;6.50;;
2474;SDS011;1248;48.694;10.160;2023-07-16T00:33:49;6.63;;;5.70;;
2474;SDS011;1248;48.694;10.160;2023-07-16T00:36:16;6.17;;;5.20;;
2474;SDS011;1248;48.694;10.160;2023-07-16T00:38:43;6.77;;;5.27;;
2474;SDS011;1248;48.694;10.160;2023-07-16T00:41:12;9.77;;;5.10;;
2474;SDS011;1248;48.694;10.160;2023-07-16T00:43:39;4.87;;;4.07;;
2474;SDS011;1248;48.694;10.160;2023-07-16T00:46:08;4.93;;;4.53;;
2474;SDS011;1248;48.694;10.160;2023-07-16T00:48:35;9.00;;;3.93;;
2474;SDS011;1248;48.694;10.160;2023-07-16T00:51:02;4.70;;;3.90;;
2474;SDS011;1248;48.694;10.160;2023-07-16T00:53:29;4.53;;;3.27;;
2474;SDS011;1248;48.694;10.160;2023-07-16T00:55:57;4.37;;;2.90;;
2474;SDS011;1248;48.694;10.160;2023-07-16T00:58:25;6.73;;;2.77;;
2474;SDS011;1248;48.694;10.160;2023-07-16T01:00:52;2.30;;;1.87;;
2474;SDS011;1248;48.694;10.160;2023-07-16T01:03:20;2.03;;;1.50;;
2474;SDS011;1248;48.694;10.160;2023-07-16T01:05:49;2.30;;;1.50;;
2474;SDS011;1248;48.694;10.160;2023-07-16T01:08:21;2.07;;;1.60;;
2474;SDS011;1248;48.694;10.160;2023-07-16T01:10:52;1.90;;;1.30;;
2474;SDS011;1248;48.694;10.160;2023-07-16T01:13:20;1.67;;;1.30;;
2474;SDS011;1248;48.694;10.160;2023-07-16T01:15:47;1.80;;;1.30;;
2474;SDS011;1248;48.694;10.160;2023-07-16T01:18:14;1.40;;;1.20;;
2474;SDS011;1248;48.694;10.160;2023-07-16T01:20:43;2.10;;;1.50;;
2474;SDS011;1248;48.694;10.160;2023-07-16T01:23:14;1.70;;;1.60;;
2474;SDS011;1248;48.694;10.160;2023-07-16T01:25:56;4.43;;;1.30;;
2474;SDS011;1248;48.694;10.160;2023-07-16T01:28:37;1.40;;;1.30;;
2474;SDS011;1248;48.694;10.160;2023-07-16T01:31:13;2.03;;;1.50;;
2474;SDS011;1248;48.694;10.160;2023-07-16T01:33:40;1.70;;;1.30;;
2474;SDS011;1248;48.694;10.160;2023-07-16T01:36:07;2.73;;;1.50;;
2474;SDS011;1248;48.694;10.160;2023-07-16T01:38:34;2.03;;;1.40;;
2474;SDS011;1248;48.694;10.160;2023-07-16T01:41:02;3.33;;;2.07;;
2474;SDS011;1248;48.694;10.160;2023-07-16T01:43:29;1.93;;;1.73;;
2474;SDS011;1248;48.694;10.160;2023-07-16T01:45:56;2.27;;;1.80;;
2474;SDS011;1248;48.694;10.160;2023-07-16T01:48:27;4.27;;;1.57;;
2474;SDS011;1248;48.694;10.160;2023-07-16T01:50:56;3.53;;;1.50;;
2474;SDS011;1248;48.694;10.160;2023-07-16T01:53:23;1.60;;;1.40;;
2474;SDS011;1248;48.694;10.160;2023-07-16T01:55:50;3.80;;;2.10;;
2474;SDS011;1248;48.694;10.160;2023-07-16T01:58:18;2.50;;;2.00;;
2474;SDS011;1248;48.694;10.160;2023-07-16T02:00:45;2.03;;;1.53;;
2474;SDS011;1248;48.694;10.160;2023-07-16T02:03:13;5.00;;;2.23;;
2474;SDS011;1248;48.694;10.160;2023-07-16T02:05:42;1.70;;;1.53;;
2474;SDS011;1248;48.694;10.160;2023-07-16T02:08:09;2.07;;;1.80;;
2474;SDS011;1248;48.694;10.160;2023-07-16T02:10:36;2.83;;;1.67;;
2474;SDS011;1248;48.694;10.160;2023-07-16T02:13:03;2.30;;;1.90;;
2474;SDS011;1248;48.694;10.160;2023-07-16T02:15:30;2.47;;;1.83;;
2474;SDS011;1248;48.694;10.160;2023-07-16T02:17:57;3.00;;;1.80;;
2474;SDS011;1248;48.694;10.160;2023-07-16T02:20:24;1.50;;;1.40;;
2474;SDS011;1248;48.694;10.160;2023-07-16T02:22:52;3.60;;;2.10;;
2474;SDS011;1248;48.694;10.160;2023-07-16T02:25:22;1.80;;;1.70;;
2474;SDS011;1248;48.694;10.160;2023-07-16T02:27:49;4.10;;;1.77;;
2474;SDS011;1248;48.694;10.160;2023-07-16T02:30:16;2.47;;;1.47;;
2474;SDS011;1248;48.694;10.160;2023-07-16T02:32:43;2.83;;;1.70;;
2474;SDS011;1248;48.694;10.160;2023-07-16T02:35:11;2.00;;;1.70;;
2474;SDS011;1248;48.694;10.160;2023-07-16T02:37:38;2.70;;;1.60;;
2474;SDS011;1248;48.694;10.160;2023-07-16T02:40:07;2.33;;;1.37;;
2474;SDS011;1248;48.694;10.160;2023-07-16T02:42:35;1.90;;;1.70;;
2474;SDS011;1248;48.694;10.160;2023-07-16T02:45:02;2.87;;;1.90;;
2474;SDS011;1248;48.694;10.160;2023-07-16T02:47:30;4.60;;;2.00;;
2474;SDS011;1248;48.694;10.160;2023-07-16T02:49:57;4.70;;;1.90;;
2474;SDS011;1248;48.694;10.160;2023-07-16T02:52:24;3.47;;;2.20;;
2474;SDS011;1248;48.694;10.160;2023-07-16T02:54:51;2.07;;;1.87;;
2474;SDS011;1248;48.694;10.160;2023-07-16T02:57:20;2.60;;;2.23;;
2474;SDS011;1248;48.694;10.160;2023-07-16T02:59:47;2.57;;;1.83;;
2474;SDS011;1248;48.694;10.160;2023-07-16T03:02:14;2.93;;;2.13;;
2474;SDS011;1248;48.694;10.160;2023-07-16T03:04:41;3.00;;;1.93;;
2474;SDS011;1248;48.694;10.160;2023-07-16T03:07:08;3.60;;;2.00;;
2474;SDS011;1248;48.694;10.160;2023-07-16T03:09:36;3.20;;;2.23;;
2474;SDS011;1248;48.694;10.160;2023-07-16T03:12:03;3.57;;;2.10;;
2474;SDS011;1248;48.694;10.160;2023-07-16T03:17:00;3.23;;;2.40;;
2474;SDS011;1248;48.694;10.160;2023-07-16T03:19:27;2.33;;;2.10;;
2474;SDS011;1248;48.694;10.160;2023-07-16T03:21:54;2.27;;;1.90;;
2474;SDS011;1248;48.694;10.160;2023-07-16T03:24:21;4.63;;;2.03;;
2474;SDS011;1248;48.694;10.160;2023-07-16T03:26:48;2.47;;;2.07;;
2474;SDS011;1248;48.694;10.160;2023-07-16T03:29:15;2.80;;;2.30;;
2474;SDS011;1248;48.694;10.160;2023-07-16T03:31:43;5.97;;;2.53;;
2474;SDS011;1248;48.694;10.160;2023-07-16T03:34:10;2.20;;;2.00;;
2474;SDS011;1248;48.694;10.160;2023-07-16T03:36:37;2.13;;;1.93;;
2474;SDS011;1248;48.694;10.160;2023-07-16T03:39:04;3.10;;;1.90;;
2474;SDS011;1248;48.694;10.160;2023-07-16T03:41:31;3.40;;;2.47;;
2474;SDS011;1248;48.694;10.160;2023-07-16T03:43:58;2.97;;;2.20;;
2474;SDS011;1248;48.694;10.160;2023-07-16T03:46:25;2.43;;;2.13;;
2474;SDS011;1248;48.694;10.160;2023-07-16T03:48:54;2.47;;;1.80;;
2474;SDS011;1248;48.694;10.160;2023-07-16T03:51:21;4.53;;;2.57;;
2474;SDS011;1248;48.694;10.160;2023-07-16T03:53:48;2.30;;;2.10;;
2474;SDS011;1248;48.694;10.160;2023-07-16T03:56:15;2.20;;;1.80;;
2474;SDS011;1248;48.694;10.160;2023-07-16T03:58:42;5.53;;;1.77;;
2474;SDS011;1248;48.694;10.160;2023-07-16T04:01:09;2.33;;;1.97;;
2474;SDS011;1248;48.694;10.160;2023-07-16T04:03:37;2.27;;;1.70;;
2474;SDS011;1248;48.694;10.160;2023-07-16T04:06:06;3.10;;;2.10;;
2474;SDS011;1248;48.694;10.160;2023-07-16T04:08:34;2.77;;;1.83;;
2474;SDS011;1248;48.694;10.160;2023-07-16T04:11:02;4.63;;;2.20;;
2474;SDS011;1248;48.694;10.160;2023-07-16T04:13:29;2.03;;;1.77;;
2474;SDS011;1248;48.694;10.160;2023-07-16T04:15:56;2.00;;;1.80;;
2474;SDS011;1248;48.694;10.160;2023-07-16T04:18:23;2.80;;;2.10;;
2474;SDS011;1248;48.694;10.160;2023-07-16T04:20:50;4.50;;;1.70;;
2474;SDS011;1248;48.694;10.160;2023-07-16T04:23:19;3.60;;;2.10;;
2474;SDS011;1248;48.694;10.160;2023-07-16T04:25:46;2.20;;;1.93;;
2474;SDS011;1248;48.694;10.160;2023-07-16T04:28:13;3.60;;;1.60;;
2474;SDS011;1248;48.694;10.160;2023-07-16T04:30:40;1.97;;;1.80;;
2474;SDS011;1248;48.694;10.160;2023-07-16T04:33:07;2.77;;;1.93;;
2474;SDS011;1248;48.694;10.160;2023-07-16T04:35:35;3.30;;;1.90;;
2474;SDS011;1248;48.694;10.160;2023-07-16T04:38:02;3.20;;;1.97;;
2474;SDS011;1248;48.694;10.160;2023-07-16T04:40:30;2.27;;;2.03;;
2474;SDS011;1248;48.694;10.160;2023-07-16T04:42:57;3.03;;;2.33;;
2474;SDS011;1248;48.694;10.160;2023-07-16T04:45:24;2.90;;;2.30;;
2474;SDS011;1248;48.694;10.160;2023-07-16T04:47:52;3.03;;;1.90;;
2474;SDS011;1248;48.694;10.160;2023-07-16T04:50:19;2.80;;;2.00;;
2474;SDS011;1248;48.694;10.160;2023-07-16T04:52:46;3.50;;;1.70;;
2474;SDS011;1248;48.694;10.160;2023-07-16T04:55:13;3.30;;;2.20;;
2474;SDS011;1248;48.694;10.160;2023-07-16T04:57:41;2.23;;;2.03;;
2474;SDS011;1248;48.694;10.160;2023-07-16T05:00:09;2.93;;;2.67;;
2474;SDS011;1248;48.694;10.160;2023-07-16T05:02:38;2.53;;;2.10;;
2474;SDS011;1248;48.694;10.160;2023-07-16T05:05:05;3.90;;;2.20;;
2474;SDS011;1248;48.694;10.160;2023-07-16T05:07:33;2.10;;;1.90;;
2474;SDS011;1248;48.694;10.160;2023-07-16T05:10:00;2.73;;;1.63;;
2474;SDS011;1248;48.694;10.160;2023-07-16T05:12:27;3.00;;;2.10;;
2474;SDS011;1248;48.694;10.160;2023-07-16T05:14:55;3.63;;;1.87;;
2474;SDS011;1248;48.694;10.160;2023-07-16T05:17:22;3.87;;;1.90;;
2474;SDS011;1248;48.694;10.160;2023-07-16T05:19:49;2.07;;;1.90;;
2474;SDS011;1248;48.694;10.160;2023-07-16T05:22:16;2.70;;;2.00;;
2474;SDS011;1248;48.694;10.160;2023-07-16T05:24:43;2.63;;;1.90;;
2474;SDS011;1248;48.694;10.160;2023-07-16T05:27:11;4.60;;;2.20;;
2474;SDS011;1248;48.694;10.160;2023-07-16T05:29:38;3.43;;;1.73;;
2474;SDS011;1248;48.694;10.160;2023-07-16T05:32:07;3.23;;;1.90;;
2474;SDS011;1248;48.694;10.160;2023-07-16T05:34:34;5.40;;;1.97;;
2474;SDS011;1248;48.694;10.160;2023-07-16T05:37:01;3.10;;;1.80;;
2474;SDS011;1248;48.694;10.160;2023-07-16T05:39:28;5.83;;;2.10;;
2474;SDS011;1248;48.694;10.160;2023-07-16T05:41:56;2.90;;;2.03;;
2474;SDS011;1248;48.694;10.160;2023-07-16T05:44:23;5.13;;;2.07;;
2474;SDS011;1248;48.694;10.160;2023-07-16T05:46:50;2.50;;;2.10;;
2474;SDS011;1248;48.694;10.160;2023-07-16T05:49:18;3.33;;;1.70;;
2474;SDS011;1248;48.694;10.160;2023-07-16T05:51:45;3.13;;;2.20;;
2474;SDS011;1248;48.694;10.160;2023-07-16T05:54:12;1.80;;;1.70;;
2474;SDS011;1248;48.694;10.160;2023-07-16T05:56:39;7.07;;;2.67;;
2474;SDS011;1248;48.694;10.160;2023-07-16T05:59:06;4.30;;;1.70;;
2474;SDS011;1248;48.694;10.160;2023-07-16T06:01:33;2.80;;;1.87;;
2474;SDS011;1248;48.694;10.160;2023-07-16T06:04:00;3.47;;;2.10;;
2474;SDS011;1248;48.694;10.160;2023-07-16T06:06:30;2.27;;;2.00;;
2474;SDS011;1248;48.694;10.160;2023-07-16T06:08:58;3.70;;;2.33;;
2474;SDS011;1248;48.694;10.160;2023-07-16T06:11:25;3.20;;;2.23;;
2474;SDS011;1248;48.694;10.160;2023-07-16T06:13:53;3.13;;;1.90;;
2474;SDS011;1248;48.694;10.160;2023-07-16T06:16:20;2.53;;;2.10;;
2474;SDS011;1248;48.694;10.160;2023-07-16T06:18:47;3.30;;;1.83;;
2474;SDS011;1248;48.694;10.160;2023-07-16T06:21:14;3.90;;;2.13;;
2474;SDS011;1248;48.694;10.160;2023-07-16T06:23:43;6.00;;;2.07;;
2474;SDS011;1248;48.694;10.160;2023-07-16T06:26:10;2.90;;;2.33;;
2474;SDS011;1248;48.694;10.160;2023-07-16T06:28:37;4.20;;;2.20;;
2474;SDS011;1248;48.694;10.160;2023-07-16T06:31:04;5.60;;;2.57;;
2474;SDS011;1248;48.694;10.160;2023-07-16T06:33:31;2.03;;;1.73;;
2474;SDS011;1248;48.694;10.160;2023-07-16T06:35:58;5.77;;;1.83;;
2474;SDS011;1248;48.694;10.160;2023-07-16T06:38:25;2.97;;;2.10;;
2474;SDS011;1248;48.694;10.160;2023-07-16T06:40:53;7.40;;;2.37;;
2474;SDS011;1248;48.694;10.160;2023-07-16T06:43:21;3.77;;;2.20;;
2474;SDS011;1248;48.694;10.160;2023-07-16T06:45:48;5.23;;;2.03;;
2474;SDS011;1248;48.694;10.160;2023-07-16T06:48:15;2.80;;;1.90;;
2474;SDS011;1248;48.694;10.160;2023-07-16T06:50:43;2.40;;;1.77;;
2474;SDS011;1248;48.694;10.160;2023-07-16T06:53:10;3.93;;;2.40;;
2474;SDS011;1248;48.694;10.160;2023-07-16T06:55:37;3.13;;;1.70;;
2474;SDS011;1248;48.694;10.160;2023-07-16T06:58:05;3.00;;;2.00;;
2474;SDS011;1248;48.694;10.160;2023-07-16T07:00:36;2.60;;;2.20;;
2474;SDS011;1248;48.694;10.160;2023-07-16T07:03:03;2.80;;;1.83;;
2474;SDS011;1248;48.694;10.160;2023-07-16T07:05:30;4.60;;;2.80;;
2474;SDS011;1248;48.694;10.160;2023-07-16T07:07:57;6.13;;;2.37;;
2474;SDS011;1248;48.694;10.160;2023-07-16T07:10:24;4.80;;;2.27;;
2474;SDS011;1248;48.694;10.160;2023-07-16T07:12:51;4.37;;;2.43;;
2474;SDS011;1248;48.694;10.160;2023-07-16T07:15:20;3.20;;;2.20;;
2474;SDS011;1248;48.694;10.160;2023-07-16T07:17:47;5.00;;;2.40;;
2474;SDS011;1248;48.694;10.160;2023-07-16T07:20:14;4.77;;;2.60;;
2474;SDS011;1248;48.694;10.160;2023-07-16T07:22:43;5.50;;;2.60;;
2474;SDS011;1248;48.694;10.160;2023-07-16T07:25:10;3.13;;;2.27;;
2474;SDS011;1248;48.694;10.160;2023-07-16T07:27:37;7.03;;;2.53;;
2474;SDS011;1248;48.694;10.160;2023-07-16T07:30:05;5.47;;;2.13;;
2474;SDS011;1248;48.694;10.160;2023-07-16T07:32:36;3.27;;;2.13;;
2474;SDS011;1248;48.694;10.160;2023-07-16T07:35:04;4.00;;;2.10;;
2474;SDS011;1248;48.694;10.160;2023-07-16T07:37:31;2.13;;;1.80;;
2474;SDS011;1248;48.694;10.160;2023-07-16T07:39:59;4.50;;;2.07;;
2474;SDS011;1248;48.694;10.160;2023-07-16T07:42:26;4.70;;;2.30;;
2474;SDS011;1248;48.694;10.160;2023-07-16T07:44:53;3.13;;;2.70;;
2474;SDS011;1248;48.694;10.160;2023-07-16T07:47:20;4.30;;;2.17;;
2474;SDS011;1248;48.694;10.160;2023-07-16T07:49:49;2.47;;;1.83;;
2474;SDS011;1248;48.694;10.160;2023-07-16T07:52:17;5.67;;;2.10;;
2474;SDS011;1248;48.694;10.160;2023-07-16T07:54:44;4.40;;;2.70;;
2474;SDS011;1248;48.694;10.160;2023-07-16T07:57:11;5.60;;;2.03;;
2474;SDS011;1248;48.694;10.160;2023-07-16T07:59:38;4.43;;;1.93;;
2474;SDS011;1248;48.694;10.160;2023-07-16T08:02:05;5.90;;;2.20;;
2474;SDS011;1248;48.694;10.160;2023-07-16T08:04:32;3.20;;;1.50;;
2474;SDS011;1248;48.694;10.160;2023-07-16T08:07:00;3.73;;;2.07;;
2474;SDS011;1248;48.694;10.160;2023-07-16T08:09:28;4.23;;;1.87;;
2474;SDS011;1248;48.694;10.160;2023-07-16T08:11:55;4.03;;;1.90;;
2474;SDS011;1248;48.694;10.160;2023-07-16T08:14:22;3.53;;;2.03;;
2474;SDS011;1248;48.694;10.160;2023-07-16T08:16:49;3.40;;;1.80;;
2474;SDS011;1248;48.694;10.160;2023-07-16T08:19:16;4.30;;;2.13;;
2474;SDS011;1248;48.694;10.160;2023-07-16T08:21:43;5.03;;;2.40;;
2474;SDS011;1248;48.694;10.160;2023-07-16T08:24:12;2.57;;;1.67;;
2474;SDS011;1248;48.694;10.160;2023-07-16T08:26:39;4.23;;;2.13;;
2474;SDS011;1248;48.694;10.160;2023-07-16T08:29:06;2.80;;;2.20;;
2474;SDS011;1248;48.694;10.160;2023-07-16T08:31:33;3.70;;;1.87;;
2474;SDS011;1248;48.694;10.160;2023-07-16T08:34:00;3.80;;;1.87;;
2474;SDS011;1248;48.694;10.160;2023-07-16T08:36:27;3.67;;;1.70;;
2474;SDS011;1248;48.694;10.160;2023-07-16T08:38:54;4.07;;;2.00;;
2474;SDS011;1248;48.694;10.160;2023-07-16T08:41:22;3.07;;;2.27;;
2474;SDS011;1248;48.694;10.160;2023-07-16T08:43:50;4.00;;;2.10;;
2474;SDS011;1248;48.694;10.160;2023-07-16T08:46:17;3.70;;;2.00;;
2474;SDS011;1248;48.694;10.160;2023-07-16T08:48:45;5.70;;;2.67;;
2474;SDS011;1248;48.694;10.160;2023-07-16T08:51:13;6.27;;;2.17;;
2474;SDS011;1248;48.694;10.160;2023-07-16T08:53:41;2.50;;;1.73;;
2474;SDS011;1248;48.694;10.160;2023-07-16T08:56:08;5.67;;;2.10;;
2474;SDS011;1248;48.694;10.160;2023-07-16T08:58:37;1.87;;;1.67;;
2474;SDS011;1248;48.694;10.160;2023-07-16T09:01:04;3.10;;;2.00;;
2474;SDS011;1248;48.694;10.160;2023-07-16T09:03:32;5.47;;;1.77;;
2474;SDS011;1248;48.694;10.160;2023-07-16T09:05:59;2.60;;;1.87;;
2474;SDS011;1248;48.694;10.160;2023-07-16T09:08:26;6.63;;;2.10;;
2474;SDS011;1248;48.694;10.160;2023-07-16T09:10:54;4.57;;;1.90;;
2474;SDS011;1248;48.694;10.160;2023-07-16T09:13:21;5.10;;;1.70;;
2474;SDS011;1248;48.694;10.160;2023-07-16T09:15:54;6.10;;;2.30;;
2474;SDS011;1248;48.694;10.160;2023-07-16T09:18:21;4.27;;;2.20;;
2474;SDS011;1248;48.694;10.160;2023-07-16T09:20:49;4.93;;;1.80;;
2474;SDS011;1248;48.694;10.160;2023-07-16T09:23:21;4.70;;;2.00;;
2474;SDS011;1248;48.694;10.160;2023-07-16T09:25:50;4.50;;;2.20;;
2474;SDS011;1248;48.694;10.160;2023-07-16T09:28:18;3.77;;;2.00;;
2474;SDS011;1248;48.694;10.160;2023-07-16T09:30:46;3.97;;;2.20;;
2474;SDS011;1248;48.694;10.160;2023-07-16T09:33:14;7.00;;;2.60;;
2474;SDS011;1248;48.694;10.160;2023-07-16T09:35:42;4.57;;;1.90;;
2474;SDS011;1248;48.694;10.160;2023-07-16T09:38:10;3.77;;;1.93;;
2474;SDS011;1248;48.694;10.160;2023-07-16T09:40:37;4.70;;;2.33;;
2474;SDS011;1248;48.694;10.160;2023-07-16T09:43:05;4.00;;;2.13;;
2474;SDS011;1248;48.694;10.160;2023-07-16T09:45:33;3.50;;;1.80;;
2474;SDS011;1248;48.694;10.160;2023-07-16T09:48:00;5.00;;;2.27;;
2474;SDS011;1248;48.694;10.160;2023-07-16T09:50:29;3.63;;;1.73;;
2474;SDS011;1248;48.694;10.160;2023-07-16T09:52:57;4.30;;;2.23;;
2474;SDS011;1248;48.694;10.160;2023-07-16T09:55:24;2.70;;;1.70;;
2474;SDS011;1248;48.694;10.160;2023-07-16T09:57:52;2.73;;;1.87;;
2474;SDS011;1248;48.694;10.160;2023-07-16T10:00:20;4.20;;;2.10;;
2474;SDS011;1248;48.694;10.160;2023-07-16T10:02:48;8.03;;;1.93;;
2474;SDS011;1248;48.694;10.160;2023-07-16T10:05:17;5.93;;;2.10;;
2474;SDS011;1248;48.694;10.160;2023-07-16T10:07:50;2.70;;;2.03;;
2474;SDS011;1248;48.694;10.160;2023-07-16T10:10:18;3.90;;;2.47;;
2474;SDS011;1248;48.694;10.160;2023-07-16T10:12:56;3.27;;;2.10;;
2474;SDS011;1248;48.694;10.160;2023-07-16T10:15:26;3.30;;;1.57;;
2474;SDS011;1248;48.694;10.160;2023-07-16T10:17:54;3.50;;;2.23;;
2474;SDS011;1248;48.694;10.160;2023-07-16T10:20:28;5.33;;;2.10;;
2474;SDS011;1248;48.694;10.160;2023-07-16T10:22:57;4.93;;;2.67;;
2474;SDS011;1248;48.694;10.160;2023-07-16T10:25:24;3.10;;;2.27;;
2474;SDS011;1248;48.694;10.160;2023-07-16T10:27:52;2.57;;;2.00;;
2474;SDS011;1248;48.694;10.160;2023-07-16T10:30:20;4.30;;;2.13;;
2474;SDS011;1248;48.694;10.160;2023-07-16T10:32:50;3.13;;;2.47;;
2474;SDS011;1248;48.694;10.160;2023-07-16T10:35:17;3.57;;;2.10;;
2474;SDS011;1248;48.694;10.160;2023-07-16T10:37:45;4.00;;;2.20;;
2474;SDS011;1248;48.694;10.160;2023-07-16T10:40:14;3.10;;;2.10;;
2474;SDS011;1248;48.694;10.160;2023-07-16T10:42:43;3.87;;;2.20;;
2474;SDS011;1248;48.694;10.160;2023-07-16T10:45:12;2.70;;;1.77;;
2474;SDS011;1248;48.694;10.160;2023-07-16T10:47:40;4.67;;;2.83;;
2474;SDS011;1248;48.694;10.160;2023-07-16T10:50:18;2.60;;;2.00;;
2474;SDS011;1248;48.694;10.160;2023-07-16T10:52:46;4.97;;;1.90;;
2474;SDS011;1248;48.694;10.160;2023-07-16T10:55:19;3.77;;;2.53;;
2474;SDS011;1248;48.694;10.160;2023-07-16T10:57:46;5.43;;;2.60;;
2474;SDS011;1248;48.694;10.160;2023-07-16T11:00:14;2.50;;;1.90;;
2474;SDS011;1248;48.694;10.160;2023-07-16T11:02:41;5.17;;;2.30;;
2474;SDS011;1248;48.694;10.160;2023-07-16T11:05:09;4.43;;;2.20;;
2474;SDS011;1248;48.694;10.160;2023-07-16T11:07:37;2.67;;;2.03;;
2474;SDS011;1248;48.694;10.160;2023-07-16T11:10:04;3.40;;;1.83;;
2474;SDS011;1248;48.694;10.160;2023-07-16T11:12:33;3.13;;;2.20;;
2474;SDS011;1248;48.694;10.160;2023-07-16T11:15:00;5.00;;;2.10;;
2474;SDS011;1248;48.694;10.160;2023-07-16T11:17:28;3.10;;;2.07;;
2474;SDS011;1248;48.694;10.160;2023-07-16T11:19:55;5.00;;;2.37;;
2474;SDS011;1248;48.694;10.160;2023-07-16T11:22:24;3.63;;;2.00;;
2474;SDS011;1248;48.694;10.160;2023-07-16T11:24:52;3.03;;;2.23;;
2474;SDS011;1248;48.694;10.160;2023-07-16T11:27:20;3.10;;;2.10;;
2474;SDS011;1248;48.694;10.160;2023-07-16T11:29:50;5.00;;;2.17;;
2474;SDS011;1248;48.694;10.160;2023-07-16T11:32:28;3.63;;;2.20;;
2474;SDS011;1248;48.694;10.160;2023-07-16T11:34:56;2.77;;;2.33;;
2474;SDS011;1248;48.694;10.160;2023-07-16T11:37:24;3.87;;;2.47;;
2474;SDS011;1248;48.694;10.160;2023-07-16T11:39:54;3.67;;;1.87;;
2474;SDS011;1248;48.694;10.160;2023-07-16T11:42:27;4.20;;;2.13;;
2474;SDS011;1248;48.694;10.160;2023-07-16T11:44:56;5.77;;;2.80;;
2474;SDS011;1248;48.694;10.160;2023-07-16T11:47:24;3.60;;;2.00;;
2474;SDS011;1248;48.694;10.160;2023-07-16T11:49:51;2.27;;;1.87;;
2474;SDS011;1248;48.694;10.160;2023-07-16T11:52:19;3.33;;;1.90;;
2474;SDS011;1248;48.694;10.160;2023-07-16T11:54:47;2.40;;;1.83;;
2474;SDS011;1248;48.694;10.160;2023-07-16T11:57:14;3.80;;;2.87;;
2474;SDS011;1248;48.694;10.160;2023-07-16T11:59:41;3.90;;;2.22;;
2474;SDS011;1248;48.694;10.160;2023-07-16T12:02:10;3.83;;;2.13;;
2474;SDS011;1248;48.694;10.160;2023-07-16T12:04:37;4.70;;;2.00;;
2474;SDS011;1248;48.694;10.160;2023-07-16T12:07:04;3.23;;;2.23;;
2474;SDS011;1248;48.694;10.160;2023-07-16T12:09:31;2.73;;;2.13;;
2474;SDS011;1248;48.694;10.160;2023-07-16T12:11:59;2.90;;;1.90;;
2474;SDS011;1248;48.694;10.160;2023-07-16T12:14:26;5.00;;;2.50;;
2474;SDS011;1248;48.694;10.160;2023-07-16T12:16:53;4.00;;;1.83;;
2474;SDS011;1248;48.694;10.160;2023-07-16T12:19:22;3.17;;;2.27;;
2474;SDS011;1248;48.694;10.160;2023-07-16T12:21:49;3.77;;;2.03;;
2474;SDS011;1248;48.694;10.160;2023-07-16T12:24:16;2.40;;;1.80;;
2474;SDS011;1248;48.694;10.160;2023-07-16T12:26:43;4.00;;;2.20;;
2474;SDS011;1248;48.694;10.160;2023-07-16T12:29:10;2.60;;;1.70;;
2474;SDS011;1248;48.694;10.160;2023-07-16T12:31:37;4.17;;;2.33;;
2474;SDS011;1248;48.694;10.160;2023-07-16T12:34:04;4.13;;;2.10;;
2474;SDS011;1248;48.694;10.160;2023-07-16T12:36:32;4.33;;;2.13;;
2474;SDS011;1248;48.694;10.160;2023-07-16T12:38:59;7.40;;;1.83;;
2474;SDS011;1248;48.694;10.160;2023-07-16T12:41:26;3.97;;;2.43;;
2474;SDS011;1248;48.694;10.160;2023-07-16T12:43:54;5.93;;;2.37;;
2474;SDS011;1248;48.694;10.160;2023-07-16T12:46:21;4.50;;;1.93;;
2474;SDS011;1248;48.694;10.160;2023-07-16T12:48:48;3.63;;;1.90;;
2474;SDS011;1248;48.694;10.160;2023-07-16T12:51:15;2.57;;;2.30;;
2474;SDS011;1248;48.694;10.160;2023-07-16T12:53:43;3.20;;;2.00;;
2474;SDS011;1248;48.694;10.160;2023-07-16T12:56:10;5.07;;;2.47;;
2474;SDS011;1248;48.694;10.160;2023-07-16T12:58:37;4.80;;;2.37;;
2474;SDS011;1248;48.694;10.160;2023-07-16T13:01:04;3.43;;;2.10;;
2474;SDS011;1248;48.694;10.160;2023-07-16T13:03:31;6.10;;;2.37;;
2474;SDS011;1248;48.694;10.160;2023-07-16T13:05:58;4.50;;;2.23;;
2474;SDS011;1248;48.694;10.160;2023-07-16T13:08:25;3.00;;;2.17;;
2474;SDS011;1248;48.694;10.160;2023-07-16T13:10:54;5.93;;;2.30;;
2474;SDS011;1248;48.694;10.160;2023-07-16T13:13:21;3.17;;;2.40;;
2474;SDS011;1248;48.694;10.160;2023-07-16T13:15:48;3.00;;;2.10;;
2474;SDS011;1248;48.694;10.160;2023-07-16T13:18:15;2.70;;;1.93;;
2474;SDS011;1248;48.694;10.160;2023-07-16T13:20:42;4.73;;;2.50;;
2474;SDS011;1248;48.694;10.160;2023-07-16T13:23:09;3.33;;;2.03;;
2474;SDS011;1248;48.694;10.160;2023-07-16T13:25:36;6.50;;;2.80;;
2474;SDS011;1248;48.694;10.160;2023-07-16T13:28:05;4.07;;;2.30;;
2474;SDS011;1248;48.694;10.160;2023-07-16T13:30:32;4.00;;;2.70;;
2474;SDS011;1248;48.694;10.160;2023-07-16T13:32:59;2.70;;;2.03;;
2474;SDS011;1248;48.694;10.160;2023-07-16T13:35:27;3.23;;;2.30;;
2474;SDS011;1248;48.694;10.160;2023-07-16T13:37:54;5.00;;;2.37;;
2474;SDS011;1248;48.694;10.160;2023-07-16T13:40:21;3.73;;;2.77;;
2474;SDS011;1248;48.694;10.160;2023-07-16T13:42:48;3.03;;;2.40;;
2474;SDS011;1248;48.694;10.160;2023-07-16T13:45:16;3.73;;;2.00;;
2474;SDS011;1248;48.694;10.160;2023-07-16T13:47:43;4.13;;;2.13;;
2474;SDS011;1248;48.694;10.160;2023-07-16T13:50:10;5.00;;;2.20;;
2474;SDS011;1248;48.694;10.160;2023-07-16T13:52:37;4.07;;;2.30;;
2474;SDS011;1248;48.694;10.160;2023-07-16T13:55:05;2.97;;;2.23;;
2474;SDS011;1248;48.694;10.160;2023-07-16T13:57:32;3.00;;;2.67;;
2474;SDS011;1248;48.694;10.160;2023-07-16T13:59:59;4.20;;;2.33;;
2474;SDS011;1248;48.694;10.160;2023-07-16T14:02:28;2.80;;;2.40;;
2474;SDS011;1248;48.694;10.160;2023-07-16T14:04:55;3.53;;;2.03;;
2474;SDS011;1248;48.694;10.160;2023-07-16T14:07:22;6.67;;;2.93;;
2474;SDS011;1248;48.694;10.160;2023-07-16T14:09:49;2.47;;;1.90;;
2474;SDS011;1248;48.694;10.160;2023-07-16T14:12:16;4.50;;;2.40;;
2474;SDS011;1248;48.694;10.160;2023-07-16T14:14:43;3.20;;;2.10;;
2474;SDS011;1248;48.694;10.160;2023-07-16T14:17:10;2.03;;;1.83;;
2474;SDS011;1248;48.694;10.160;2023-07-16T14:19:38;3.27;;;2.40;;
2474;SDS011;1248;48.694;10.160;2023-07-16T14:22:06;2.07;;;1.70;;
2474;SDS011;1248;48.694;10.160;2023-07-16T14:24:37;2.50;;;2.20;;
2474;SDS011;1248;48.694;10.160;2023-07-16T14:27:05;2.73;;;1.97;;
2474;SDS011;1248;48.694;10.160;2023-07-16T14:29:33;2.27;;;1.70;;
2474;SDS011;1248;48.694;10.160;2023-07-16T14:32:00;9.00;;;2.80;;
2474;SDS011;1248;48.694;10.160;2023-07-16T14:34:27;3.63;;;2.40;;
2474;SDS011;1248;48.694;10.160;2023-07-16T14:36:56;3.17;;;2.10;;
2474;SDS011;1248;48.694;10.160;2023-07-16T14:39:23;3.23;;;2.20;;
2474;SDS011;1248;48.694;10.160;2023-07-16T14:41:50;5.33;;;2.53;;
2474;SDS011;1248;48.694;10.160;2023-07-16T14:44:17;3.77;;;2.20;;
2474;SDS011;1248;48.694;10.160;2023-07-16T14:46:44;5.20;;;2.10;;
2474;SDS011;1248;48.694;10.160;2023-07-16T14:49:11;2.90;;;2.30;;
2474;SDS011;1248;48.694;10.160;2023-07-16T14:51:38;5.33;;;2.77;;
2474;SDS011;1248;48.694;10.160;2023-07-16T14:54:07;3.87;;;2.30;;
2474;SDS011;1248;48.694;10.160;2023-07-16T14:56:34;3.67;;;2.50;;
2474;SDS011;1248;48.694;10.160;2023-07-16T14:59:02;3.13;;;2.73;;
2474;SDS011;1248;48.694;10.160;2023-07-16T15:01:29;4.40;;;2.37;;
2474;SDS011;1248;48.694;10.160;2023-07-16T15:03:56;4.43;;;2.50;;
2474;SDS011;1248;48.694;10.160;2023-07-16T15:06:23;4.10;;;2.63;;